sensor_id;sensor_type;location;lat;lon;timestamp;P1;durP1;ratioP1;P2;durP2;ratioP2
46216;SDS011;47258;59.424;13.482;2024-02-28T00:00:22;5.18;;;4.20;;
46216;SDS011;47258;59.424;13.482;2024-02-28T00:02:58;8.20;;;5.22;;
46216;SDS011;47258;59.424;13.482;2024-02-28T00:05:37;7.30;;;5.82;;
46216;SDS011;47258;59.424;13.482;2024-02-28T00:08:13;8.07;;;6.63;;
46216;SDS011;47258;59.424;13.482;2024-02-28T00:10:48;7.10;;;5.63;;
46216;SDS011;47258;59.424;13.482;2024-02-28T00:13:29;8.27;;;6.25;;
46216;SDS011;47258;59.424;13.482;2024-02-28T00:16:05;11.05;;;6.55;;
46216;SDS011;47258;59.424;13.482;2024-02-28T00:18:36;10.38;;;5.72;;
46216;SDS011;47258;59.424;13.482;2024-02-28T00:21:06;9.23;;;6.18;;
46216;SDS011;47258;59.424;13.482;2024-02-28T00:24:18;9.77;;;6.50;;
46216;SDS011;47258;59.424;13.482;2024-02-28T00:27:09;12.25;;;7.63;;
46216;SDS011;47258;59.424;13.482;2024-02-28T00:30:07;10.85;;;6.65;;
46216;SDS011;47258;59.424;13.482;2024-02-28T00:32:43;10.15;;;7.47;;
46216;SDS011;47258;59.424;13.482;2024-02-28T00:35:43;11.30;;;7.57;;
46216;SDS011;47258;59.424;13.482;2024-02-28T00:38:32;10.93;;;7.85;;
46216;SDS011;47258;59.424;13.482;2024-02-28T00:41:09;14.55;;;9.73;;
46216;SDS011;47258;59.424;13.482;2024-02-28T00:43:58;12.85;;;7.55;;
46216;SDS011;47258;59.424;13.482;2024-02-28T00:46:33;13.48;;;8.68;;
46216;SDS011;47258;59.424;13.482;2024-02-28T00:49:12;11.35;;;8.18;;
46216;SDS011;47258;59.424;13.482;2024-02-28T00:51:48;8.95;;;7.40;;
46216;SDS011;47258;59.424;13.482;2024-02-28T00:54:28;13.05;;;6.95;;
46216;SDS011;47258;59.424;13.482;2024-02-28T00:57:34;12.00;;;7.90;;
46216;SDS011;47258;59.424;13.482;2024-02-28T01:00:22;12.95;;;8.10;;
46216;SDS011;47258;59.424;13.482;2024-02-28T01:03:20;12.70;;;8.82;;
46216;SDS011;47258;59.424;13.482;2024-02-28T01:05:54;10.98;;;8.02;;
46216;SDS011;47258;59.424;13.482;2024-02-28T01:08:45;8.80;;;6.78;;
46216;SDS011;47258;59.424;13.482;2024-02-28T01:11:58;9.82;;;8.10;;
46216;SDS011;47258;59.424;13.482;2024-02-28T01:14:54;10.13;;;8.65;;
46216;SDS011;47258;59.424;13.482;2024-02-28T01:17:52;11.07;;;8.40;;
46216;SDS011;47258;59.424;13.482;2024-02-28T01:20:35;15.02;;;9.70;;
46216;SDS011;47258;59.424;13.482;2024-02-28T01:23:33;8.15;;;6.13;;
46216;SDS011;47258;59.424;13.482;2024-02-28T01:26:28;10.05;;;6.13;;
46216;SDS011;47258;59.424;13.482;2024-02-28T01:29:26;12.52;;;7.50;;
46216;SDS011;47258;59.424;13.482;2024-02-28T01:32:21;7.40;;;5.43;;
46216;SDS011;47258;59.424;13.482;2024-02-28T01:35:42;7.47;;;5.30;;
46216;SDS011;47258;59.424;13.482;2024-02-28T01:38:53;9.82;;;5.95;;
46216;SDS011;47258;59.424;13.482;2024-02-28T01:41:32;7.45;;;5.15;;
46216;SDS011;47258;59.424;13.482;2024-02-28T01:44:22;7.70;;;5.72;;
46216;SDS011;47258;59.424;13.482;2024-02-28T01:46:59;8.50;;;5.82;;
46216;SDS011;47258;59.424;13.482;2024-02-28T01:49:39;5.57;;;4.53;;
46216;SDS011;47258;59.424;13.482;2024-02-28T01:52:28;9.50;;;4.97;;
46216;SDS011;47258;59.424;13.482;2024-02-28T01:55:12;4.28;;;3.45;;
46216;SDS011;47258;59.424;13.482;2024-02-28T01:58:07;3.70;;;3.22;;
46216;SDS011;47258;59.424;13.482;2024-02-28T02:00:57;3.08;;;2.85;;
46216;SDS011;47258;59.424;13.482;2024-02-28T02:04:21;3.45;;;3.17;;
46216;SDS011;47258;59.424;13.482;2024-02-28T02:07:24;3.70;;;2.80;;
46216;SDS011;47258;59.424;13.482;2024-02-28T02:10:04;3.83;;;3.35;;
46216;SDS011;47258;59.424;13.482;2024-02-28T02:12:37;6.07;;;3.30;;
46216;SDS011;47258;59.424;13.482;2024-02-28T02:15:05;3.58;;;3.28;;
46216;SDS011;47258;59.424;13.482;2024-02-28T02:17:43;4.32;;;3.40;;
46216;SDS011;47258;59.424;13.482;2024-02-28T02:20:22;4.70;;;4.07;;
46216;SDS011;47258;59.424;13.482;2024-02-28T02:23:01;4.03;;;3.45;;
46216;SDS011;47258;59.424;13.482;2024-02-28T02:25:46;6.90;;;4.72;;
46216;SDS011;47258;59.424;13.482;2024-02-28T02:28:18;5.55;;;4.72;;
46216;SDS011;47258;59.424;13.482;2024-02-28T02:30:55;10.25;;;5.82;;
46216;SDS011;47258;59.424;13.482;2024-02-28T02:33:34;7.30;;;5.85;;
46216;SDS011;47258;59.424;13.482;2024-02-28T02:36:04;5.38;;;4.88;;
46216;SDS011;47258;59.424;13.482;2024-02-28T02:38:32;8.13;;;6.60;;
46216;SDS011;47258;59.424;13.482;2024-02-28T02:41:03;11.27;;;6.82;;
46216;SDS011;47258;59.424;13.482;2024-02-28T02:43:35;11.82;;;7.97;;
46216;SDS011;47258;59.424;13.482;2024-02-28T02:46:07;7.78;;;6.45;;
46216;SDS011;47258;59.424;13.482;2024-02-28T02:48:48;8.82;;;7.07;;
46216;SDS011;47258;59.424;13.482;2024-02-28T02:51:17;11.90;;;8.00;;
46216;SDS011;47258;59.424;13.482;2024-02-28T02:53:45;9.05;;;7.60;;
46216;SDS011;47258;59.424;13.482;2024-02-28T02:56:13;15.05;;;9.23;;
46216;SDS011;47258;59.424;13.482;2024-02-28T02:58:41;10.88;;;8.05;;
46216;SDS011;47258;59.424;13.482;2024-02-28T03:01:10;11.45;;;7.43;;
46216;SDS011;47258;59.424;13.482;2024-02-28T03:03:41;9.85;;;7.90;;
46216;SDS011;47258;59.424;13.482;2024-02-28T03:06:09;10.68;;;9.02;;
46216;SDS011;47258;59.424;13.482;2024-02-28T03:09:07;12.57;;;10.20;;
46216;SDS011;47258;59.424;13.482;2024-02-28T03:11:38;13.13;;;9.93;;
46216;SDS011;47258;59.424;13.482;2024-02-28T03:14:16;18.08;;;12.13;;
46216;SDS011;47258;59.424;13.482;2024-02-28T03:16:57;11.77;;;9.52;;
46216;SDS011;47258;59.424;13.482;2024-02-28T03:20:12;14.85;;;10.73;;
46216;SDS011;47258;59.424;13.482;2024-02-28T03:23:43;15.77;;;10.32;;
46216;SDS011;47258;59.424;13.482;2024-02-28T03:26:47;17.65;;;12.07;;
46216;SDS011;47258;59.424;13.482;2024-02-28T03:30:02;16.00;;;11.48;;
46216;SDS011;47258;59.424;13.482;2024-02-28T03:32:46;17.40;;;12.35;;
46216;SDS011;47258;59.424;13.482;2024-02-28T03:35:52;21.42;;;12.80;;
46216;SDS011;47258;59.424;13.482;2024-02-28T03:39:02;20.83;;;12.43;;
46216;SDS011;47258;59.424;13.482;2024-02-28T03:41:51;21.90;;;14.00;;
46216;SDS011;47258;59.424;13.482;2024-02-28T03:44:28;19.15;;;11.05;;
46216;SDS011;47258;59.424;13.482;2024-02-28T03:47:25;16.13;;;11.40;;
46216;SDS011;47258;59.424;13.482;2024-02-28T03:50:13;18.65;;;10.80;;
46216;SDS011;47258;59.424;13.482;2024-02-28T03:52:51;16.77;;;10.90;;
46216;SDS011;47258;59.424;13.482;2024-02-28T03:55:23;22.52;;;11.40;;
46216;SDS011;47258;59.424;13.482;2024-02-28T03:58:14;15.80;;;10.48;;
46216;SDS011;47258;59.424;13.482;2024-02-28T04:00:55;16.70;;;10.73;;
46216;SDS011;47258;59.424;13.482;2024-02-28T04:03:53;16.98;;;10.27;;
46216;SDS011;47258;59.424;13.482;2024-02-28T04:06:58;14.10;;;9.63;;
46216;SDS011;47258;59.424;13.482;2024-02-28T04:09:52;14.07;;;8.82;;
46216;SDS011;47258;59.424;13.482;2024-02-28T04:12:33;12.63;;;9.38;;
46216;SDS011;47258;59.424;13.482;2024-02-28T04:15:33;15.15;;;9.80;;
46216;SDS011;47258;59.424;13.482;2024-02-28T04:18:09;11.38;;;8.13;;
46216;SDS011;47258;59.424;13.482;2024-02-28T04:20:50;14.10;;;8.90;;
46216;SDS011;47258;59.424;13.482;2024-02-28T04:24:07;9.98;;;8.18;;
46216;SDS011;47258;59.424;13.482;2024-02-28T04:27:11;9.88;;;8.48;;
46216;SDS011;47258;59.424;13.482;2024-02-28T04:30:03;10.23;;;7.03;;
46216;SDS011;47258;59.424;13.482;2024-02-28T04:33:11;10.10;;;7.90;;
46216;SDS011;47258;59.424;13.482;2024-02-28T04:36:02;11.50;;;9.00;;
46216;SDS011;47258;59.424;13.482;2024-02-28T04:39:10;11.63;;;8.82;;
46216;SDS011;47258;59.424;13.482;2024-02-28T04:42:00;13.40;;;10.75;;
46216;SDS011;47258;59.424;13.482;2024-02-28T04:45:07;10.68;;;8.73;;
46216;SDS011;47258;59.424;13.482;2024-02-28T04:48:05;12.05;;;9.45;;
46216;SDS011;47258;59.424;13.482;2024-02-28T04:50:56;14.55;;;10.25;;
46216;SDS011;47258;59.424;13.482;2024-02-28T04:53:38;16.30;;;10.50;;
46216;SDS011;47258;59.424;13.482;2024-02-28T04:56:27;17.10;;;9.70;;
46216;SDS011;47258;59.424;13.482;2024-02-28T04:59:02;13.32;;;9.80;;
46216;SDS011;47258;59.424;13.482;2024-02-28T05:01:54;15.07;;;11.10;;
46216;SDS011;47258;59.424;13.482;2024-02-28T05:04:50;15.45;;;10.32;;
46216;SDS011;47258;59.424;13.482;2024-02-28T05:07:18;13.38;;;10.25;;
46216;SDS011;47258;59.424;13.482;2024-02-28T05:10:10;17.65;;;10.85;;
46216;SDS011;47258;59.424;13.482;2024-02-28T05:13:10;17.00;;;11.18;;
46216;SDS011;47258;59.424;13.482;2024-02-28T05:16:01;15.20;;;10.75;;
46216;SDS011;47258;59.424;13.482;2024-02-28T05:18:50;14.32;;;10.90;;
46216;SDS011;47258;59.424;13.482;2024-02-28T05:21:41;11.77;;;9.43;;
46216;SDS011;47258;59.424;13.482;2024-02-28T05:24:12;11.68;;;9.38;;
46216;SDS011;47258;59.424;13.482;2024-02-28T05:27:11;13.02;;;10.00;;
46216;SDS011;47258;59.424;13.482;2024-02-28T05:30:13;15.60;;;10.00;;
46216;SDS011;47258;59.424;13.482;2024-02-28T05:33:33;11.00;;;8.75;;
46216;SDS011;47258;59.424;13.482;2024-02-28T05:36:13;11.70;;;9.02;;
46216;SDS011;47258;59.424;13.482;2024-02-28T05:38:42;13.95;;;8.30;;
46216;SDS011;47258;59.424;13.482;2024-02-28T05:41:34;13.00;;;9.43;;
46216;SDS011;47258;59.424;13.482;2024-02-28T05:44:05;13.30;;;8.95;;
46216;SDS011;47258;59.424;13.482;2024-02-28T05:47:28;10.25;;;8.30;;
46216;SDS011;47258;59.424;13.482;2024-02-28T05:50:24;11.10;;;8.43;;
46216;SDS011;47258;59.424;13.482;2024-02-28T05:53:26;10.30;;;8.48;;
46216;SDS011;47258;59.424;13.482;2024-02-28T05:56:37;11.43;;;8.80;;
46216;SDS011;47258;59.424;13.482;2024-02-28T05:59:16;13.27;;;9.15;;
46216;SDS011;47258;59.424;13.482;2024-02-28T06:02:22;13.30;;;9.55;;
46216;SDS011;47258;59.424;13.482;2024-02-28T06:05:14;13.57;;;9.80;;
46216;SDS011;47258;59.424;13.482;2024-02-28T06:08:17;13.40;;;10.18;;
46216;SDS011;47258;59.424;13.482;2024-02-28T06:10:53;17.30;;;11.20;;
46216;SDS011;47258;59.424;13.482;2024-02-28T06:13:32;15.18;;;11.80;;
46216;SDS011;47258;59.424;13.482;2024-02-28T06:16:15;21.30;;;13.50;;
46216;SDS011;47258;59.424;13.482;2024-02-28T06:18:57;19.48;;;12.10;;
46216;SDS011;47258;59.424;13.482;2024-02-28T06:21:39;17.15;;;12.35;;
46216;SDS011;47258;59.424;13.482;2024-02-28T06:24:21;16.05;;;12.70;;
46216;SDS011;47258;59.424;13.482;2024-02-28T06:27:10;17.50;;;12.68;;
46216;SDS011;47258;59.424;13.482;2024-02-28T06:29:47;17.13;;;14.25;;
46216;SDS011;47258;59.424;13.482;2024-02-28T06:32:40;18.70;;;13.77;;
46216;SDS011;47258;59.424;13.482;2024-02-28T06:35:41;17.05;;;11.18;;
46216;SDS011;47258;59.424;13.482;2024-02-28T06:38:34;19.27;;;14.52;;
46216;SDS011;47258;59.424;13.482;2024-02-28T06:41:51;22.40;;;14.82;;
46216;SDS011;47258;59.424;13.482;2024-02-28T06:44:48;23.27;;;15.68;;
46216;SDS011;47258;59.424;13.482;2024-02-28T06:47:22;14.75;;;10.52;;
46216;SDS011;47258;59.424;13.482;2024-02-28T06:50:09;19.10;;;15.02;;
46216;SDS011;47258;59.424;13.482;2024-02-28T06:52:37;25.88;;;16.55;;
46216;SDS011;47258;59.424;13.482;2024-02-28T06:55:03;21.27;;;15.15;;
46216;SDS011;47258;59.424;13.482;2024-02-28T06:57:39;21.00;;;15.73;;
46216;SDS011;47258;59.424;13.482;2024-02-28T07:00:10;21.92;;;15.05;;
46216;SDS011;47258;59.424;13.482;2024-02-28T07:02:37;25.77;;;17.60;;
46216;SDS011;47258;59.424;13.482;2024-02-28T07:05:04;28.15;;;18.67;;
46216;SDS011;47258;59.424;13.482;2024-02-28T07:07:32;26.50;;;18.33;;
46216;SDS011;47258;59.424;13.482;2024-02-28T07:10:02;23.92;;;17.65;;
46216;SDS011;47258;59.424;13.482;2024-02-28T07:12:29;23.73;;;16.55;;
46216;SDS011;47258;59.424;13.482;2024-02-28T07:14:57;26.95;;;18.23;;
46216;SDS011;47258;59.424;13.482;2024-02-28T07:17:24;22.88;;;16.65;;
46216;SDS011;47258;59.424;13.482;2024-02-28T07:19:52;22.33;;;16.45;;
46216;SDS011;47258;59.424;13.482;2024-02-28T07:22:31;35.03;;;19.67;;
46216;SDS011;47258;59.424;13.482;2024-02-28T07:24:57;24.67;;;16.67;;
46216;SDS011;47258;59.424;13.482;2024-02-28T07:27:27;22.92;;;16.83;;
46216;SDS011;47258;59.424;13.482;2024-02-28T07:30:00;23.25;;;16.85;;
46216;SDS011;47258;59.424;13.482;2024-02-28T07:32:50;24.95;;;17.35;;
46216;SDS011;47258;59.424;13.482;2024-02-28T07:35:52;26.13;;;17.30;;
46216;SDS011;47258;59.424;13.482;2024-02-28T07:38:21;22.20;;;14.20;;
46216;SDS011;47258;59.424;13.482;2024-02-28T07:40:54;21.88;;;15.88;;
46216;SDS011;47258;59.424;13.482;2024-02-28T07:43:42;22.75;;;16.67;;
46216;SDS011;47258;59.424;13.482;2024-02-28T07:47:24;21.95;;;16.70;;
46216;SDS011;47258;59.424;13.482;2024-02-28T07:49:51;26.10;;;17.10;;
46216;SDS011;47258;59.424;13.482;2024-02-28T07:52:32;25.77;;;16.95;;
46216;SDS011;47258;59.424;13.482;2024-02-28T07:57:32;27.50;;;17.50;;
46216;SDS011;47258;59.424;13.482;2024-02-28T08:00:03;30.52;;;17.77;;
46216;SDS011;47258;59.424;13.482;2024-02-28T08:02:41;22.15;;;16.38;;
46216;SDS011;47258;59.424;13.482;2024-02-28T08:05:13;24.02;;;15.60;;
46216;SDS011;47258;59.424;13.482;2024-02-28T08:07:48;18.00;;;13.80;;
46216;SDS011;47258;59.424;13.482;2024-02-28T08:10:39;17.13;;;12.88;;
46216;SDS011;47258;59.424;13.482;2024-02-28T08:13:50;18.38;;;13.35;;
46216;SDS011;47258;59.424;13.482;2024-02-28T08:16:28;19.77;;;12.38;;
46216;SDS011;47258;59.424;13.482;2024-02-28T08:19:17;20.98;;;14.18;;
46216;SDS011;47258;59.424;13.482;2024-02-28T08:22:00;22.00;;;14.40;;
46216;SDS011;47258;59.424;13.482;2024-02-28T08:24:34;21.88;;;15.40;;
46216;SDS011;47258;59.424;13.482;2024-02-28T08:27:07;26.83;;;17.40;;
46216;SDS011;47258;59.424;13.482;2024-02-28T08:29:35;25.02;;;17.38;;
46216;SDS011;47258;59.424;13.482;2024-02-28T08:32:09;24.95;;;17.83;;
46216;SDS011;47258;59.424;13.482;2024-02-28T08:34:47;23.92;;;16.70;;
46216;SDS011;47258;59.424;13.482;2024-02-28T08:37:32;23.75;;;15.63;;
46216;SDS011;47258;59.424;13.482;2024-02-28T08:40:03;23.77;;;15.52;;
46216;SDS011;47258;59.424;13.482;2024-02-28T08:42:31;22.75;;;16.08;;
46216;SDS011;47258;59.424;13.482;2024-02-28T08:45:02;24.23;;;16.25;;
46216;SDS011;47258;59.424;13.482;2024-02-28T08:47:32;24.67;;;17.23;;
46216;SDS011;47258;59.424;13.482;2024-02-28T08:49:59;21.70;;;16.27;;
46216;SDS011;47258;59.424;13.482;2024-02-28T08:52:26;21.08;;;15.82;;
46216;SDS011;47258;59.424;13.482;2024-02-28T08:54:52;25.02;;;16.15;;
46216;SDS011;47258;59.424;13.482;2024-02-28T08:57:21;20.02;;;15.30;;
46216;SDS011;47258;59.424;13.482;2024-02-28T08:59:50;23.10;;;17.42;;
46216;SDS011;47258;59.424;13.482;2024-02-28T09:02:18;23.10;;;15.38;;
46216;SDS011;47258;59.424;13.482;2024-02-28T09:05:08;21.38;;;15.55;;
46216;SDS011;47258;59.424;13.482;2024-02-28T09:07:40;23.10;;;16.55;;
46216;SDS011;47258;59.424;13.482;2024-02-28T09:10:07;25.27;;;16.10;;
46216;SDS011;47258;59.424;13.482;2024-02-28T09:12:40;25.00;;;16.52;;
46216;SDS011;47258;59.424;13.482;2024-02-28T09:15:09;19.92;;;14.35;;
46216;SDS011;47258;59.424;13.482;2024-02-28T09:17:40;16.50;;;13.25;;
46216;SDS011;47258;59.424;13.482;2024-02-28T09:20:10;17.15;;;13.43;;
46216;SDS011;47258;59.424;13.482;2024-02-28T09:23:11;19.30;;;14.38;;
46216;SDS011;47258;59.424;13.482;2024-02-28T09:25:40;20.38;;;15.18;;
46216;SDS011;47258;59.424;13.482;2024-02-28T09:28:07;16.55;;;11.68;;
46216;SDS011;47258;59.424;13.482;2024-02-28T09:30:33;16.00;;;12.93;;
46216;SDS011;47258;59.424;13.482;2024-02-28T09:33:00;18.92;;;12.68;;
46216;SDS011;47258;59.424;13.482;2024-02-28T09:35:25;13.35;;;11.13;;
46216;SDS011;47258;59.424;13.482;2024-02-28T09:37:52;18.52;;;11.48;;
46216;SDS011;47258;59.424;13.482;2024-02-28T09:40:20;15.63;;;11.35;;
46216;SDS011;47258;59.424;13.482;2024-02-28T09:42:48;16.92;;;12.65;;
46216;SDS011;47258;59.424;13.482;2024-02-28T09:45:19;16.67;;;12.07;;
46216;SDS011;47258;59.424;13.482;2024-02-28T09:47:50;17.13;;;13.57;;
46216;SDS011;47258;59.424;13.482;2024-02-28T09:50:17;17.08;;;12.13;;
46216;SDS011;47258;59.424;13.482;2024-02-28T09:55:13;16.80;;;11.60;;
46216;SDS011;47258;59.424;13.482;2024-02-28T09:57:39;18.27;;;12.35;;
46216;SDS011;47258;59.424;13.482;2024-02-28T10:00:09;15.05;;;11.93;;
46216;SDS011;47258;59.424;13.482;2024-02-28T10:02:41;14.20;;;11.10;;
46216;SDS011;47258;59.424;13.482;2024-02-28T10:05:15;17.55;;;11.45;;
46216;SDS011;47258;59.424;13.482;2024-02-28T10:07:51;17.15;;;10.98;;
46216;SDS011;47258;59.424;13.482;2024-02-28T10:10:18;18.15;;;12.38;;
46216;SDS011;47258;59.424;13.482;2024-02-28T10:12:47;14.97;;;10.47;;
46216;SDS011;47258;59.424;13.482;2024-02-28T10:15:13;17.48;;;12.13;;
46216;SDS011;47258;59.424;13.482;2024-02-28T10:17:39;14.85;;;10.48;;
46216;SDS011;47258;59.424;13.482;2024-02-28T10:20:08;13.27;;;10.38;;
46216;SDS011;47258;59.424;13.482;2024-02-28T10:22:35;13.95;;;9.68;;
46216;SDS011;47258;59.424;13.482;2024-02-28T10:25:03;13.77;;;9.95;;
46216;SDS011;47258;59.424;13.482;2024-02-28T10:27:33;17.33;;;10.43;;
46216;SDS011;47258;59.424;13.482;2024-02-28T10:30:01;12.90;;;8.77;;
46216;SDS011;47258;59.424;13.482;2024-02-28T10:32:31;14.07;;;8.70;;
46216;SDS011;47258;59.424;13.482;2024-02-28T10:35:00;14.95;;;9.85;;
46216;SDS011;47258;59.424;13.482;2024-02-28T10:37:28;11.88;;;9.32;;
46216;SDS011;47258;59.424;13.482;2024-02-28T10:39:57;11.38;;;9.02;;
46216;SDS011;47258;59.424;13.482;2024-02-28T10:42:25;12.65;;;8.23;;
46216;SDS011;47258;59.424;13.482;2024-02-28T10:44:54;10.25;;;8.82;;
46216;SDS011;47258;59.424;13.482;2024-02-28T10:47:23;13.57;;;9.20;;
46216;SDS011;47258;59.424;13.482;2024-02-28T10:49:50;13.02;;;9.50;;
46216;SDS011;47258;59.424;13.482;2024-02-28T10:52:16;15.07;;;9.27;;
46216;SDS011;47258;59.424;13.482;2024-02-28T10:54:46;11.82;;;8.63;;
46216;SDS011;47258;59.424;13.482;2024-02-28T10:57:20;13.07;;;8.93;;
46216;SDS011;47258;59.424;13.482;2024-02-28T10:59:49;9.73;;;8.25;;
46216;SDS011;47258;59.424;13.482;2024-02-28T11:02:16;8.60;;;6.85;;
46216;SDS011;47258;59.424;13.482;2024-02-28T11:04:42;12.55;;;8.00;;
46216;SDS011;47258;59.424;13.482;2024-02-28T11:07:08;11.60;;;6.68;;
46216;SDS011;47258;59.424;13.482;2024-02-28T11:09:34;9.77;;;7.45;;
46216;SDS011;47258;59.424;13.482;2024-02-28T11:12:00;9.13;;;7.35;;
46216;SDS011;47258;59.424;13.482;2024-02-28T11:14:29;11.07;;;6.38;;
46216;SDS011;47258;59.424;13.482;2024-02-28T11:19:38;6.60;;;6.00;;
46216;SDS011;47258;59.424;13.482;2024-02-28T11:22:05;8.77;;;5.53;;
46216;SDS011;47258;59.424;13.482;2024-02-28T11:24:35;12.00;;;6.68;;
46216;SDS011;47258;59.424;13.482;2024-02-28T11:27:01;11.05;;;6.55;;
46216;SDS011;47258;59.424;13.482;2024-02-28T11:29:29;10.63;;;5.82;;
46216;SDS011;47258;59.424;13.482;2024-02-28T11:32:00;8.48;;;5.60;;
46216;SDS011;47258;59.424;13.482;2024-02-28T11:34:26;7.25;;;5.68;;
46216;SDS011;47258;59.424;13.482;2024-02-28T11:36:54;10.30;;;5.72;;
46216;SDS011;47258;59.424;13.482;2024-02-28T11:39:20;6.68;;;4.90;;
46216;SDS011;47258;59.424;13.482;2024-02-28T11:41:49;8.13;;;5.45;;
46216;SDS011;47258;59.424;13.482;2024-02-28T11:44:40;6.03;;;5.32;;
46216;SDS011;47258;59.424;13.482;2024-02-28T11:47:08;8.07;;;5.43;;
46216;SDS011;47258;59.424;13.482;2024-02-28T11:49:39;7.50;;;5.10;;
46216;SDS011;47258;59.424;13.482;2024-02-28T11:52:10;10.43;;;5.75;;
46216;SDS011;47258;59.424;13.482;2024-02-28T11:57:21;7.07;;;4.75;;
46216;SDS011;47258;59.424;13.482;2024-02-28T11:59:52;7.22;;;4.18;;
46216;SDS011;47258;59.424;13.482;2024-02-28T12:02:19;8.95;;;6.20;;
46216;SDS011;47258;59.424;13.482;2024-02-28T12:04:53;9.15;;;5.22;;
46216;SDS011;47258;59.424;13.482;2024-02-28T12:07:20;8.18;;;4.72;;
46216;SDS011;47258;59.424;13.482;2024-02-28T12:09:46;8.85;;;4.85;;
46216;SDS011;47258;59.424;13.482;2024-02-28T12:12:14;9.02;;;4.78;;
46216;SDS011;47258;59.424;13.482;2024-02-28T12:14:41;3.80;;;3.40;;
46216;SDS011;47258;59.424;13.482;2024-02-28T12:17:09;9.10;;;4.40;;
46216;SDS011;47258;59.424;13.482;2024-02-28T12:19:35;6.32;;;4.00;;
46216;SDS011;47258;59.424;13.482;2024-02-28T12:22:01;7.60;;;4.53;;
46216;SDS011;47258;59.424;13.482;2024-02-28T12:24:27;6.10;;;3.83;;
46216;SDS011;47258;59.424;13.482;2024-02-28T12:26:53;6.38;;;3.53;;
46216;SDS011;47258;59.424;13.482;2024-02-28T12:29:18;9.45;;;4.93;;
46216;SDS011;47258;59.424;13.482;2024-02-28T12:31:44;10.65;;;4.40;;
46216;SDS011;47258;59.424;13.482;2024-02-28T12:34:10;8.30;;;4.68;;
46216;SDS011;47258;59.424;13.482;2024-02-28T12:36:35;11.82;;;5.82;;
46216;SDS011;47258;59.424;13.482;2024-02-28T12:39:01;7.10;;;4.10;;
46216;SDS011;47258;59.424;13.482;2024-02-28T12:41:27;10.75;;;5.05;;
46216;SDS011;47258;59.424;13.482;2024-02-28T12:43:53;5.78;;;5.10;;
46216;SDS011;47258;59.424;13.482;2024-02-28T12:46:19;15.48;;;4.93;;
46216;SDS011;47258;59.424;13.482;2024-02-28T12:48:45;10.25;;;4.65;;
46216;SDS011;47258;59.424;13.482;2024-02-28T12:51:20;15.48;;;5.63;;
46216;SDS011;47258;59.424;13.482;2024-02-28T12:54:03;10.10;;;4.88;;
46216;SDS011;47258;59.424;13.482;2024-02-28T12:56:29;8.80;;;4.80;;
46216;SDS011;47258;59.424;13.482;2024-02-28T12:58:55;10.15;;;6.05;;
46216;SDS011;47258;59.424;13.482;2024-02-28T13:01:20;15.20;;;6.30;;
46216;SDS011;47258;59.424;13.482;2024-02-28T13:03:46;8.82;;;5.05;;
46216;SDS011;47258;59.424;13.482;2024-02-28T13:06:13;12.85;;;5.88;;
46216;SDS011;47258;59.424;13.482;2024-02-28T13:08:40;9.48;;;5.53;;
46216;SDS011;47258;59.424;13.482;2024-02-28T13:11:06;14.93;;;6.75;;
46216;SDS011;47258;59.424;13.482;2024-02-28T13:13:32;13.27;;;6.47;;
46216;SDS011;47258;59.424;13.482;2024-02-28T13:15:58;13.73;;;6.70;;
46216;SDS011;47258;59.424;13.482;2024-02-28T13:18:24;13.00;;;6.63;;
46216;SDS011;47258;59.424;13.482;2024-02-28T13:20:50;14.38;;;6.88;;
46216;SDS011;47258;59.424;13.482;2024-02-28T13:23:17;11.50;;;6.03;;
46216;SDS011;47258;59.424;13.482;2024-02-28T13:25:43;13.30;;;7.60;;
46216;SDS011;47258;59.424;13.482;2024-02-28T13:28:09;11.05;;;7.28;;
46216;SDS011;47258;59.424;13.482;2024-02-28T13:30:36;17.17;;;7.72;;
46216;SDS011;47258;59.424;13.482;2024-02-28T13:33:03;18.20;;;8.65;;
46216;SDS011;47258;59.424;13.482;2024-02-28T13:35:29;21.15;;;9.80;;
46216;SDS011;47258;59.424;13.482;2024-02-28T13:37:56;17.35;;;8.02;;
46216;SDS011;47258;59.424;13.482;2024-02-28T13:40:25;13.93;;;8.48;;
46216;SDS011;47258;59.424;13.482;2024-02-28T13:42:52;21.20;;;9.05;;
46216;SDS011;47258;59.424;13.482;2024-02-28T13:45:18;27.42;;;9.05;;
46216;SDS011;47258;59.424;13.482;2024-02-28T13:47:43;20.10;;;9.98;;
46216;SDS011;47258;59.424;13.482;2024-02-28T13:50:09;22.92;;;10.70;;
46216;SDS011;47258;59.424;13.482;2024-02-28T13:52:35;23.48;;;9.50;;
46216;SDS011;47258;59.424;13.482;2024-02-28T13:55:03;21.33;;;9.93;;
46216;SDS011;47258;59.424;13.482;2024-02-28T13:57:29;26.58;;;10.85;;
46216;SDS011;47258;59.424;13.482;2024-02-28T13:59:55;18.88;;;8.88;;
46216;SDS011;47258;59.424;13.482;2024-02-28T14:02:21;22.50;;;9.27;;
46216;SDS011;47258;59.424;13.482;2024-02-28T14:04:50;22.02;;;8.95;;
46216;SDS011;47258;59.424;13.482;2024-02-28T14:07:17;25.63;;;9.63;;
46216;SDS011;47258;59.424;13.482;2024-02-28T14:09:43;23.63;;;10.50;;
46216;SDS011;47258;59.424;13.482;2024-02-28T14:12:10;15.30;;;8.40;;
46216;SDS011;47258;59.424;13.482;2024-02-28T14:14:35;15.88;;;7.65;;
46216;SDS011;47258;59.424;13.482;2024-02-28T14:17:01;24.05;;;9.55;;
46216;SDS011;47258;59.424;13.482;2024-02-28T14:19:28;28.35;;;10.45;;
46216;SDS011;47258;59.424;13.482;2024-02-28T14:21:53;25.67;;;9.52;;
46216;SDS011;47258;59.424;13.482;2024-02-28T14:24:21;27.95;;;10.38;;
46216;SDS011;47258;59.424;13.482;2024-02-28T14:26:52;28.77;;;11.45;;
46216;SDS011;47258;59.424;13.482;2024-02-28T14:29:18;22.00;;;7.70;;
46216;SDS011;47258;59.424;13.482;2024-02-28T14:31:44;26.02;;;9.65;;
46216;SDS011;47258;59.424;13.482;2024-02-28T14:34:09;19.63;;;8.77;;
46216;SDS011;47258;59.424;13.482;2024-02-28T14:36:35;24.50;;;9.43;;
46216;SDS011;47258;59.424;13.482;2024-02-28T14:39:01;19.85;;;9.52;;
46216;SDS011;47258;59.424;13.482;2024-02-28T14:41:26;16.63;;;7.60;;
46216;SDS011;47258;59.424;13.482;2024-02-28T14:43:52;19.63;;;7.57;;
46216;SDS011;47258;59.424;13.482;2024-02-28T14:46:18;20.08;;;7.78;;
46216;SDS011;47258;59.424;13.482;2024-02-28T14:48:46;17.60;;;8.40;;
46216;SDS011;47258;59.424;13.482;2024-02-28T14:51:16;16.90;;;8.07;;
46216;SDS011;47258;59.424;13.482;2024-02-28T14:53:44;20.23;;;7.93;;
46216;SDS011;47258;59.424;13.482;2024-02-28T14:56:11;17.08;;;7.05;;
46216;SDS011;47258;59.424;13.482;2024-02-28T14:58:36;15.40;;;7.05;;
46216;SDS011;47258;59.424;13.482;2024-02-28T15:01:04;16.77;;;8.35;;
46216;SDS011;47258;59.424;13.482;2024-02-28T15:03:30;26.25;;;8.65;;
46216;SDS011;47258;59.424;13.482;2024-02-28T15:05:55;14.23;;;7.22;;
46216;SDS011;47258;59.424;13.482;2024-02-28T15:08:21;23.75;;;8.02;;
46216;SDS011;47258;59.424;13.482;2024-02-28T15:10:48;14.77;;;7.53;;
46216;SDS011;47258;59.424;13.482;2024-02-28T15:13:14;21.38;;;8.63;;
46216;SDS011;47258;59.424;13.482;2024-02-28T15:15:40;18.08;;;7.90;;
46216;SDS011;47258;59.424;13.482;2024-02-28T15:18:06;21.45;;;6.72;;
46216;SDS011;47258;59.424;13.482;2024-02-28T15:20:31;18.25;;;6.95;;
46216;SDS011;47258;59.424;13.482;2024-02-28T15:22:57;30.05;;;10.30;;
46216;SDS011;47258;59.424;13.482;2024-02-28T15:25:24;20.63;;;6.90;;
46216;SDS011;47258;59.424;13.482;2024-02-28T15:27:50;16.55;;;7.15;;